^^
Datos históricos de la estación: Murcia-Puente Tocinos
Diario Informe para Diciembre 7, 2019 Unidades:  Ambas    Ingés   Métrico
Diario Semanal Mensual Anual
  Máxima: Mínima: Promedio:
Temperatura: 61.7 °F /  16.5 °C 49.1 °F /  9.5 °C 53.8 °F /  12.1 °C
Punto de rocio: 50.9 °F /  10.5 °C 46 °F /  7.8 °C 48.4 °F /  9.1 °C
Humedad: 92.7% 62% 82%
Velocidad viento: 5.2mph /  8.4km/h - 2.7mph /  4.4km/h
Racha viento: 13mph /  20.9km/h - -
Viento- - SSO
Presión: 30.2 in /  1023.8 hPa 30.1 in /  1020.8 hPa -
Precipitación: 0 in /  0.0 mm    
 
 
Tabla de datos para Diciembre 7, 2019
Hora Temperatura Punto de rocio Presión Viento Velocidad viento Racha viento Humedad Intensidad lluvia(por hora) Nubes
00:04 53.8 °F /  12.1 °C 50.9 °F /  10.5 °C 30.2in /  1022.0hPa Calm     90% 0in /  0.0mm
00:09 53.8 °F /  12.1 °C 50.7 °F /  10.4 °C 30.2in /  1022.0hPa Calm     89.5% 0in /  0.0mm
00:14 53.8 °F /  12.1 °C 50.5 °F /  10.3 °C 30.2in /  1022.0hPa Calm     89% 0in /  0.0mm
00:19 53.4 °F /  11.9 °C 50.2 °F /  10.1 °C 30.2in /  1022.0hPa Calm     88.4% 0in /  0.0mm
00:24 53.2 °F /  11.8 °C 50 °F /  10 °C 30.2in /  1022.2hPa Calm     88.8% 0in /  0.0mm
00:29 53.1 °F /  11.7 °C 49.8 °F /  9.9 °C 30.2in /  1022.2hPa Calm     89% 0in /  0.0mm
00:34 53.1 °F /  11.7 °C 50 °F /  10 °C 30.2in /  1022.2hPa Calm     89.5% 0in /  0.0mm
00:39 52.9 °F /  11.6 °C 50 °F /  10 °C 30.2in /  1022.2hPa Calm     90% 0in /  0.0mm
00:44 52.9 °F /  11.6 °C 50 °F /  10 °C 30.2in /  1022.1hPa Calm     90.1% 0in /  0.0mm
00:49 52.7 °F /  11.5 °C 50.2 °F /  10.1 °C 30.2in /  1022.1hPa Calm     91% 0in /  0.0mm
00:54 52.7 °F /  11.5 °C 50.2 °F /  10.1 °C 30.2in /  1022.1hPa Calm     91% 0in /  0.0mm
00:59 52.7 °F /  11.5 °C 50.2 °F /  10.1 °C 30.2in /  1022.0hPa Calm     91% 0in /  0.0mm
01:04 52.7 °F /  11.5 °C 50.2 °F /  10.1 °C 30.2in /  1022.0hPa Calm     91% 0in /  0.0mm
01:09 52.7 °F /  11.5 °C 50.2 °F /  10.1 °C 30.2in /  1022.0hPa Calm     91% 0in /  0.0mm
01:14 52.7 °F /  11.5 °C 50.2 °F /  10.1 °C 30.2in /  1021.9hPa Calm     91% 0in /  0.0mm
01:19 52.7 °F /  11.5 °C 50.2 °F /  10.1 °C 30.2in /  1021.9hPa Calm     91% 0in /  0.0mm
01:24 52.7 °F /  11.5 °C 50 °F /  10 °C 30.2in /  1021.9hPa Calm     91% 0in /  0.0mm
01:29 52.5 °F /  11.4 °C 50 °F /  10 °C 30.2in /  1021.9hPa Calm     91% 0in /  0.0mm
01:34 52.3 °F /  11.3 °C 50 °F /  10 °C 30.2in /  1021.9hPa Calm     91% 0in /  0.0mm
01:39 52.3 °F /  11.3 °C 49.8 °F /  9.9 °C 30.2in /  1021.9hPa Calm     91% 0in /  0.0mm
01:44 52.2 °F /  11.2 °C 49.6 °F /  9.8 °C 30.2in /  1021.7hPa Calm     91.1% 0in /  0.0mm
01:49 52.2 °F /  11.2 °C 49.8 °F /  9.9 °C 30.2in /  1021.7hPa Calm     92% 0in /  0.0mm
01:54 52 °F /  11.1 °C 49.5 °F /  9.7 °C 30.2in /  1021.8hPa Calm   4mph /  6.4km/h 91.3% 0in /  0.0mm
01:59 51.8 °F /  11 °C 49.5 °F /  9.7 °C 30.2in /  1021.8hPa Calm   5mph /  8km/h 92% 0in /  0.0mm
02:04 51.6 °F /  10.9 °C 49.5 °F /  9.7 °C 30.2in /  1021.8hPa Oeste 1.6mph /  2.5km/h 5mph /  8km/h 92% 0in /  0.0mm
02:09 51.6 °F /  10.9 °C 49.5 °F /  9.7 °C 30.2in /  1021.8hPa Oeste 2mph /  3.2km/h 3mph /  4.8km/h 92% 0in /  0.0mm
02:14 51.6 °F /  10.9 °C 49.6 °F /  9.8 °C 30.2in /  1021.7hPa SO 0.5mph /  0.8km/h 4mph /  6.4km/h 92.7% 0in /  0.0mm
02:19 52 °F /  11.1 °C 49.6 °F /  9.8 °C 30.2in /  1021.7hPa Calm   5mph /  8km/h 92.1% 0in /  0.0mm
02:24 52 °F /  11.1 °C 49.8 °F /  9.9 °C 30.2in /  1021.8hPa SO 1.4mph /  2.2km/h 5mph /  8km/h 92.3% 0in /  0.0mm
02:29 52.2 °F /  11.2 °C 50 °F /  10 °C 30.2in /  1021.8hPa SO 1.8mph /  2.9km/h 5.2mph /  8.4km/h 92.6% 0in /  0.0mm
02:34 52.2 °F /  11.2 °C 49.8 °F /  9.9 °C 30.2in /  1021.8hPa SO 1.9mph /  3.1km/h 5.8mph /  9.3km/h 92% 0in /  0.0mm
02:39 52.2 °F /  11.2 °C 50 °F /  10 °C 30.2in /  1021.8hPa OSO 2mph /  3.2km/h 6mph /  9.7km/h 92% 0in /  0.0mm
02:44 52.3 °F /  11.3 °C 49.8 °F /  9.9 °C 30.2in /  1021.7hPa OSO 3.5mph /  5.6km/h 6.9mph /  11.1km/h 90.9% 0in /  0.0mm
02:49 52.3 °F /  11.3 °C 49.5 °F /  9.7 °C 30.2in /  1021.7hPa Oeste 4mph /  6.5km/h 7mph /  11.3km/h 89.6% 0in /  0.0mm
02:54 52.3 °F /  11.3 °C 49.1 °F /  9.5 °C 30.2in /  1021.9hPa Oeste 4.2mph /  6.8km/h 7mph /  11.3km/h 88.8% 0in /  0.0mm
02:59 52.3 °F /  11.3 °C 48.9 °F /  9.4 °C 30.2in /  1021.9hPa OSO 4.3mph /  6.9km/h 5mph /  8km/h 88% 0in /  0.0mm
03:04 52.2 °F /  11.2 °C 48.7 °F /  9.3 °C 30.2in /  1021.9hPa SO 3.2mph /  5.2km/h 5mph /  8km/h 88% 0in /  0.0mm
03:09 52.2 °F /  11.2 °C 48.7 °F /  9.3 °C 30.2in /  1021.9hPa SO 2.9mph /  4.7km/h 5mph /  8km/h 88% 0in /  0.0mm
03:14 52.3 °F /  11.3 °C 48.9 °F /  9.4 °C 30.2in /  1021.9hPa SO 2.9mph /  4.7km/h 6.2mph /  10km/h 88% 0in /  0.0mm
03:19 52.5 °F /  11.4 °C 48.9 °F /  9.4 °C 30.2in /  1021.9hPa SO 2.9mph /  4.7km/h 6.4mph /  10.3km/h 87.4% 0in /  0.0mm
03:24 52.5 °F /  11.4 °C 48.7 °F /  9.3 °C 30.2in /  1021.9hPa SO 3.9mph /  6.3km/h 7.4mph /  11.9km/h 87% 0in /  0.0mm
03:29 52.7 °F /  11.5 °C 48.7 °F /  9.3 °C 30.2in /  1021.8hPa SO 4.3mph /  6.9km/h 7mph /  11.3km/h 86.4% 0in /  0.0mm
03:34 52.9 °F /  11.6 °C 48.7 °F /  9.3 °C 30.2in /  1021.8hPa OSO 4.6mph /  7.4km/h 7mph /  11.3km/h 86% 0in /  0.0mm
03:39 52.9 °F /  11.6 °C 48.6 °F /  9.2 °C 30.2in /  1021.9hPa OSO 4.7mph /  7.6km/h 7mph /  11.3km/h 85% 0in /  0.0mm
03:44 52.9 °F /  11.6 °C 48.6 °F /  9.2 °C 30.2in /  1021.9hPa OSO 3.9mph /  6.2km/h 6mph /  9.7km/h 85% 0in /  0.0mm
03:49 52.9 °F /  11.6 °C 48.6 °F /  9.2 °C 30.2in /  1021.9hPa OSO 3.6mph /  5.8km/h 8.1mph /  13km/h 85% 0in /  0.0mm
03:54 52.7 °F /  11.5 °C 48.4 °F /  9.1 °C 30.2in /  1021.9hPa OSO 3.2mph /  5.2km/h 8.1mph /  13km/h 85% 0in /  0.0mm
03:59 52.9 °F /  11.6 °C 48.4 °F /  9.1 °C 30.2in /  1021.9hPa Oeste 3.1mph /  5km/h 8.1mph /  13km/h 84.9% 0in /  0.0mm
04:04 52.9 °F /  11.6 °C 48.2 °F /  9 °C 30.2in /  1021.9hPa OSO 3.5mph /  5.6km/h 8mph /  12.9km/h 84% 0in /  0.0mm
04:09 52.9 °F /  11.6 °C 48.2 °F /  9 °C 30.2in /  1021.9hPa Sur 3.6mph /  5.8km/h 5mph /  8km/h 84.3% 0in /  0.0mm
04:14 52.3 °F /  11.3 °C 48 °F /  8.9 °C 30.2in /  1021.9hPa Sur 3mph /  4.9km/h 6.2mph /  10km/h 85.1% 0in /  0.0mm
04:19 52 °F /  11.1 °C 48 °F /  8.9 °C 30.2in /  1021.9hPa Sur 2.9mph /  4.7km/h 6.4mph /  10.3km/h 86.2% 0in /  0.0mm
04:24 51.4 °F /  10.8 °C 47.8 °F /  8.8 °C 30.2in /  1021.9hPa SSE 3.9mph /  6.3km/h 7mph /  11.3km/h 87.4% 0in /  0.0mm
04:29 51.3 °F /  10.7 °C 47.8 °F /  8.8 °C 30.2in /  1021.9hPa Sur 4.3mph /  6.9km/h 6mph /  9.7km/h 88.2% 0in /  0.0mm
04:34 51.1 °F /  10.6 °C 48 °F /  8.9 °C 30.2in /  1021.9hPa Sur 4.1mph /  6.6km/h 6mph /  9.7km/h 89% 0in /  0.0mm
04:39 51.1 °F /  10.6 °C 48 °F /  8.9 °C 30.2in /  1021.9hPa Sur 4mph /  6.5km/h 6mph /  9.7km/h 89.2% 0in /  0.0mm
04:44 50.9 °F /  10.5 °C 48.2 °F /  9 °C 30.2in /  1021.7hPa SSO 3.7mph /  6km/h 6.2mph /  10km/h 90% 0in /  0.0mm
04:49 50.9 °F /  10.5 °C 48 °F /  8.9 °C 30.2in /  1021.7hPa SSO 3.6mph /  5.8km/h 6.2mph /  10km/h 90% 0in /  0.0mm
04:54 50.9 °F /  10.5 °C 48.2 °F /  9 °C 30.2in /  1021.7hPa SSO 4.1mph /  6.6km/h 7.4mph /  11.9km/h 90% 0in /  0.0mm
04:59 51.1 °F /  10.6 °C 48 °F /  8.9 °C 30.2in /  1021.6hPa SSO 4.3mph /  6.9km/h 7mph /  11.3km/h 89.4% 0in /  0.0mm
05:04 50.9 °F /  10.5 °C 47.8 °F /  8.8 °C 30.2in /  1021.6hPa SSO 4.6mph /  7.4km/h 7mph /  11.3km/h 89% 0in /  0.0mm
05:09 50.9 °F /  10.5 °C 47.8 °F /  8.8 °C 30.2in /  1021.6hPa SSO 4.7mph /  7.6km/h 7mph /  11.3km/h 89% 0in /  0.0mm
05:14 50.9 °F /  10.5 °C 47.8 °F /  8.8 °C 30.2in /  1021.5hPa SSO 4.4mph /  7.1km/h 7mph /  11.3km/h 89% 0in /  0.0mm
05:19 51.1 °F /  10.6 °C 47.8 °F /  8.8 °C 30.2in /  1021.5hPa SSO 4.3mph /  6.9km/h 6.2mph /  10km/h 89% 0in /  0.0mm
05:24 51.1 °F /  10.6 °C 48 °F /  8.9 °C 30.2in /  1021.5hPa SO 3.8mph /  6.1km/h 6mph /  9.7km/h 89% 0in /  0.0mm
05:29 50.9 °F /  10.5 °C 47.8 °F /  8.8 °C 30.2in /  1021.5hPa SO 3.6mph /  5.8km/h 6mph /  9.7km/h 89% 0in /  0.0mm
05:34 50.9 °F /  10.5 °C 47.8 °F /  8.8 °C 30.2in /  1021.5hPa SO 3.2mph /  5.2km/h 5mph /  8km/h 89% 0in /  0.0mm
05:39 50.9 °F /  10.5 °C 47.8 °F /  8.8 °C 30.2in /  1021.5hPa SO 3.1mph /  5km/h 6.9mph /  11.1km/h 89% 0in /  0.0mm
05:44 50.7 °F /  10.4 °C 47.7 °F /  8.7 °C 30.2in /  1021.5hPa SO 3.5mph /  5.6km/h 7mph /  11.3km/h 89% 0in /  0.0mm
05:49 50.7 °F /  10.4 °C 47.7 °F /  8.7 °C 30.2in /  1021.5hPa SO 3.6mph /  5.8km/h 5.2mph /  8.4km/h 89% 0in /  0.0mm
05:54 50.7 °F /  10.4 °C 47.7 °F /  8.7 °C 30.2in /  1021.5hPa OSO 3.2mph /  5.2km/h 5.2mph /  8.4km/h 89% 0in /  0.0mm
05:59 50.7 °F /  10.4 °C 47.3 °F /  8.5 °C 30.2in /  1021.5hPa OSO 3.1mph /  5km/h 5mph /  8km/h 88.1% 0in /  0.0mm
06:04 50.7 °F /  10.4 °C 47.3 °F /  8.5 °C 30.2in /  1021.5hPa OSO 2.9mph /  4.7km/h 5mph /  8km/h 88% 0in /  0.0mm
06:09 50.5 °F /  10.3 °C 47.3 °F /  8.5 °C 30.2in /  1021.5hPa OSO 2.9mph /  4.7km/h 4mph /  6.4km/h 88% 0in /  0.0mm
06:14 50.5 °F /  10.3 °C 47.1 °F /  8.4 °C 30.2in /  1021.5hPa OSO 2.2mph /  3.6km/h 5.9mph /  9.5km/h 88% 0in /  0.0mm
06:19 50.5 °F /  10.3 °C 46.9 °F /  8.3 °C 30.2in /  1021.5hPa OSO 2mph /  3.2km/h 6.2mph /  10km/h 88% 0in /  0.0mm
06:24 50.4 °F /  10.2 °C 47.1 °F /  8.4 °C 30.2in /  1021.5hPa OSO 3.5mph /  5.7km/h 6mph /  9.7km/h 88.7% 0in /  0.0mm
06:29 50.4 °F /  10.2 °C 46.9 °F /  8.3 °C 30.2in /  1021.5hPa OSO 4mph /  6.5km/h 5mph /  8km/h 88.3% 0in /  0.0mm
06:34 50.2 °F /  10.1 °C 47.1 °F /  8.4 °C 30.2in /  1021.5hPa OSO 3.7mph /  6km/h 5mph /  8km/h 89% 0in /  0.0mm
06:39 50 °F /  10 °C 46.9 °F /  8.3 °C 30.2in /  1021.5hPa OSO 3.6mph /  5.8km/h 5.4mph /  8.7km/h 89% 0in /  0.0mm
06:44 49.8 °F /  9.9 °C 46.8 °F /  8.2 °C 30.2in /  1021.5hPa SO 3.2mph /  5.2km/h 6mph /  9.7km/h 89% 0in /  0.0mm
06:49 49.8 °F /  9.9 °C 46.8 °F /  8.2 °C 30.2in /  1021.5hPa SO 3.1mph /  5km/h 5mph /  8km/h 89% 0in /  0.0mm
06:54 49.8 °F /  9.9 °C 46.8 °F /  8.2 °C 30.2in /  1021.7hPa SO 2.9mph /  4.7km/h 5.8mph /  9.3km/h 89% 0in /  0.0mm
06:59 49.8 °F /  9.9 °C 46.9 °F /  8.3 °C 30.2in /  1021.7hPa SO 2.9mph /  4.7km/h 6mph /  9.7km/h 89.7% 0in /  0.0mm
07:04 49.8 °F /  9.9 °C 46.9 °F /  8.3 °C 30.2in /  1021.7hPa OSO 3mph /  4.9km/h 5mph /  8km/h 89.8% 0in /  0.0mm
07:09 49.8 °F /  9.9 °C 46.8 °F /  8.2 °C 30.2in /  1021.8hPa OSO 3.1mph /  5km/h 5.2mph /  8.4km/h 89% 0in /  0.0mm
07:14 49.8 °F /  9.9 °C 46.8 °F /  8.2 °C 30.2in /  1021.8hPa OSO 3.1mph /  5km/h 5.8mph /  9.3km/h 89% 0in /  0.0mm
07:19 49.6 °F /  9.8 °C 46.6 °F /  8.1 °C 30.2in /  1021.8hPa OSO 3.1mph /  5km/h 6mph /  9.7km/h 89% 0in /  0.0mm
07:24 49.6 °F /  9.8 °C 46.6 °F /  8.1 °C 30.2in /  1021.9hPa OSO 3.5mph /  5.6km/h 6.2mph /  10km/h 89% 0in /  0.0mm
07:29 49.6 °F /  9.8 °C 46.6 °F /  8.1 °C 30.2in /  1021.9hPa OSO 3.6mph /  5.8km/h 6mph /  9.7km/h 89% 0in /  0.0mm
07:34 49.6 °F /  9.8 °C 46.6 °F /  8.1 °C 30.2in /  1021.9hPa SO 3.6mph /  5.8km/h 6mph /  9.7km/h 89% 0in /  0.0mm
07:39 49.6 °F /  9.8 °C 46.6 °F /  8.1 °C 30.2in /  1022.0hPa SO 3.6mph /  5.8km/h 5.2mph /  8.4km/h 89% 0in /  0.0mm
07:44 49.6 °F /  9.8 °C 46.8 °F /  8.2 °C 30.2in /  1022.0hPa SO 3.2mph /  5.2km/h 5.8mph /  9.3km/h 89.6% 0in /  0.0mm
07:49 49.6 °F /  9.8 °C 46.8 °F /  8.2 °C 30.2in /  1022.0hPa OSO 3.1mph /  5km/h 6mph /  9.7km/h 90% 0in /  0.0mm
07:54 49.6 °F /  9.8 °C 46.8 °F /  8.2 °C 30.2in /  1022.1hPa OSO 3.5mph /  5.6km/h 5.8mph /  9.3km/h 89.9% 0in /  0.0mm
07:59 49.6 °F /  9.8 °C 46.6 °F /  8.1 °C 30.2in /  1022.1hPa OSO 3.6mph /  5.8km/h 6mph /  9.7km/h 89% 0in /  0.0mm
08:04 49.5 °F /  9.7 °C 46.4 °F /  8 °C 30.2in /  1022.1hPa OSO 3.2mph /  5.1km/h 6mph /  9.7km/h 89% 0in /  0.0mm
08:09 49.5 °F /  9.7 °C 46.4 °F /  8 °C 30.2in /  1022.1hPa OSO 3.1mph /  5km/h 5.8mph /  9.3km/h 89% 0in /  0.0mm
08:14 49.5 °F /  9.7 °C 46.4 °F /  8 °C 30.2in /  1022.1hPa OSO 3.1mph /  5km/h 6mph /  9.7km/h 89% 0in /  0.0mm
08:19 49.5 °F /  9.7 °C 46.4 °F /  8 °C 30.2in /  1022.1hPa OSO 3.1mph /  5km/h 5mph /  8km/h 89% 0in /  0.0mm
08:24 49.3 °F /  9.6 °C 46.2 °F /  7.9 °C 30.2in /  1022.2hPa OSO 2.9mph /  4.7km/h 5.2mph /  8.4km/h 89% 0in /  0.0mm
08:29 49.3 °F /  9.6 °C 46.2 °F /  7.9 °C 30.2in /  1022.2hPa OSO 2.9mph /  4.7km/h 5mph /  8km/h 89% 0in /  0.0mm
08:34 49.3 °F /  9.6 °C 46.2 °F /  7.9 °C 30.2in /  1022.2hPa OSO 2.5mph /  4km/h 5mph /  8km/h 89% 0in /  0.0mm
08:39 49.3 °F /  9.6 °C 46.2 °F /  7.9 °C 30.2in /  1022.3hPa OSO 2.4mph /  3.9km/h 5mph /  8km/h 89% 0in /  0.0mm
08:44 49.3 °F /  9.6 °C 46.2 °F /  7.9 °C 30.2in /  1022.3hPa SO 2.4mph /  3.9km/h 5mph /  8km/h 89% 0in /  0.0mm
08:49 49.3 °F /  9.6 °C 46.2 °F /  7.9 °C 30.2in /  1022.3hPa SO 2.4mph /  3.9km/h 5mph /  8km/h 89% 0in /  0.0mm
08:54 49.3 °F /  9.6 °C 46.2 °F /  7.9 °C 30.2in /  1022.4hPa SO 2.4mph /  3.9km/h 5mph /  8km/h 89% 0in /  0.0mm
08:59 49.3 °F /  9.6 °C 46.2 °F /  7.9 °C 30.2in /  1022.4hPa SO 2.4mph /  3.9km/h 3.6mph /  5.8km/h 89% 0in /  0.0mm
09:04 49.1 °F /  9.5 °C 46 °F /  7.8 °C 30.2in /  1022.4hPa SO 2.1mph /  3.3km/h 4mph /  6.4km/h 89% 0in /  0.0mm
09:09 49.1 °F /  9.5 °C 46.2 °F /  7.9 °C 30.2in /  1022.4hPa SO 2mph /  3.2km/h 5mph /  8km/h 89.8% 0in /  0.0mm
09:14 49.3 °F /  9.6 °C 46.4 °F /  8 °C 30.2in /  1022.4hPa SO 2.3mph /  3.7km/h 3.5mph /  5.6km/h 90% 0in /  0.0mm
09:19 49.5 °F /  9.7 °C 46.8 °F /  8.2 °C 30.2in /  1022.4hPa SO 2.4mph /  3.9km/h 3.6mph /  5.8km/h 90.3% 0in /  0.0mm
09:24 49.6 °F /  9.8 °C 47.1 °F /  8.4 °C 30.2in /  1022.5hPa SO 1.9mph /  3.1km/h 4mph /  6.4km/h 90.9% 0in /  0.0mm
09:29 49.8 °F /  9.9 °C 46.9 °F /  8.3 °C 30.2in /  1022.5hPa SO 1.8mph /  2.9km/h   90% 0in /  0.0mm
09:34 50.2 °F /  10.1 °C 47.3 °F /  8.5 °C 30.2in /  1022.5hPa SO 0.4mph /  0.7km/h   90% 0in /  0.0mm
09:39 50.4 °F /  10.2 °C 47.5 °F /  8.6 °C 30.2in /  1022.7hPa Calm     90% 0in /  0.0mm
09:44 50.5 °F /  10.3 °C 47.5 °F /  8.6 °C 30.2in /  1022.7hPa Calm   5.2mph /  8.4km/h 89.2% 0in /  0.0mm
09:49 50.7 °F /  10.4 °C 47.5 °F /  8.6 °C 30.2in /  1022.7hPa Calm   6.4mph /  10.3km/h 88.8% 0in /  0.0mm
09:54 50.7 °F /  10.4 °C 47.3 °F /  8.5 °C 30.2in /  1022.7hPa OSO 2.2mph /  3.5km/h 7mph /  11.3km/h 88% 0in /  0.0mm
09:59 50.7 °F /  10.4 °C 47.1 °F /  8.4 °C 30.2in /  1022.7hPa OSO 2.9mph /  4.7km/h 7mph /  11.3km/h 87.6% 0in /  0.0mm
10:04 50.7 °F /  10.4 °C 47.1 °F /  8.4 °C 30.2in /  1022.7hPa OSO 3.7mph /  6km/h 6.9mph /  11.1km/h 87% 0in /  0.0mm
10:09 50.9 °F /  10.5 °C 47.3 °F /  8.5 °C 30.2in /  1022.9hPa OSO 4mph /  6.5km/h 7mph /  11.3km/h 87% 0in /  0.0mm
10:14 51.1 °F /  10.6 °C 47.3 °F /  8.5 °C 30.2in /  1022.9hPa OSO 3.4mph /  5.4km/h 7.4mph /  11.9km/h 87% 0in /  0.0mm
10:19 51.1 °F /  10.6 °C 47.3 °F /  8.5 °C 30.2in /  1022.9hPa OSO 3.1mph /  5km/h 7.6mph /  12.2km/h 87% 0in /  0.0mm
10:24 51.3 °F /  10.7 °C 47.3 °F /  8.5 °C 30.2in /  1023.1hPa OSO 3.8mph /  6.1km/h 8.1mph /  13km/h 86.4% 0in /  0.0mm
10:29 51.4 °F /  10.8 °C 47.3 °F /  8.5 °C 30.2in /  1023.1hPa OSO 4mph /  6.5km/h 7mph /  11.3km/h 86% 0in /  0.0mm
10:34 51.4 °F /  10.8 °C 47.5 °F /  8.6 °C 30.2in /  1023.1hPa SO 4.2mph /  6.8km/h 7mph /  11.3km/h 86% 0in /  0.0mm
10:39 51.8 °F /  11 °C 47.7 °F /  8.7 °C 30.2in /  1023.4hPa SO 4.3mph /  6.9km/h 6mph /  9.7km/h 86% 0in /  0.0mm
10:44 52.2 °F /  11.2 °C 47.7 °F /  8.7 °C 30.2in /  1023.4hPa OSO 3.2mph /  5.2km/h 5.4mph /  8.7km/h 85% 0in /  0.0mm
10:49 52.3 °F /  11.3 °C 47.7 °F /  8.7 °C 30.2in /  1023.4hPa SO 2.9mph /  4.7km/h 6.2mph /  10km/h 84.2% 0in /  0.0mm
10:54 52.5 °F /  11.4 °C 47.7 °F /  8.7 °C 30.2in /  1023.4hPa SO 3.4mph /  5.5km/h 6.2mph /  10km/h 83.8% 0in /  0.0mm
10:59 52.5 °F /  11.4 °C 47.7 °F /  8.7 °C 30.2in /  1023.3hPa SO 3.6mph /  5.8km/h 6mph /  9.7km/h 83% 0in /  0.0mm
11:04 52.9 °F /  11.6 °C 47.8 °F /  8.8 °C 30.2in /  1023.3hPa SSO 3.6mph /  5.8km/h 6.2mph /  10km/h 82.8% 0in /  0.0mm
11:09 53.1 °F /  11.7 °C 47.8 °F /  8.8 °C 30.2in /  1023.3hPa SO 3.6mph /  5.8km/h 6mph /  9.7km/h 82.3% 0in /  0.0mm
11:14 53.2 °F /  11.8 °C 47.8 °F /  8.8 °C 30.2in /  1023.3hPa SO 3.6mph /  5.8km/h 6mph /  9.7km/h 82% 0in /  0.0mm
11:19 53.4 °F /  11.9 °C 48 °F /  8.9 °C 30.2in /  1023.3hPa SO 3.6mph /  5.8km/h 6mph /  9.7km/h 82% 0in /  0.0mm
11:24 53.8 °F /  12.1 °C 48 °F /  8.9 °C 30.2in /  1023.3hPa SO 3.2mph /  5.2km/h 8.5mph /  13.7km/h 80.8% 0in /  0.0mm
11:29 54 °F /  12.2 °C 47.8 °F /  8.8 °C 30.2in /  1023.2hPa OSO 3.1mph /  5km/h 9.2mph /  14.8km/h 80% 0in /  0.0mm
11:34 54 °F /  12.2 °C 47.8 °F /  8.8 °C 30.2in /  1023.2hPa OSO 4.7mph /  7.5km/h 9.2mph /  14.8km/h 80% 0in /  0.0mm
11:39 54 °F /  12.2 °C 47.8 °F /  8.8 °C 30.2in /  1023.2hPa OSO 5.2mph /  8.4km/h 9mph /  14.5km/h 80% 0in /  0.0mm
11:44 54 °F /  12.2 °C 48 °F /  8.9 °C 30.2in /  1023.1hPa SO 5.2mph /  8.4km/h 8.1mph /  13km/h 80% 0in /  0.0mm
11:49 54.1 °F /  12.3 °C 48 °F /  8.9 °C 30.2in /  1023.1hPa OSO 5.2mph /  8.4km/h 12.7mph /  20.4km/h 80% 0in /  0.0mm
11:54 54.1 °F /  12.3 °C 47.8 °F /  8.8 °C 30.2in /  1023.1hPa OSO 5.2mph /  8.4km/h 13mph /  20.9km/h 79.1% 0in /  0.0mm
11:59 54.3 °F /  12.4 °C 48.4 °F /  9.1 °C 30.2in /  1023.1hPa OSO 5.2mph /  8.4km/h 9mph /  14.5km/h 80% 0in /  0.0mm
12:04 54.5 °F /  12.5 °C 48.6 °F /  9.2 °C 30.2in /  1023.1hPa SSO 4.7mph /  7.5km/h 7mph /  11.3km/h 80% 0in /  0.0mm
12:09 54.9 °F /  12.7 °C 48.7 °F /  9.3 °C 30.2in /  1023.1hPa SSO 4.3mph /  6.9km/h 6mph /  9.7km/h 80% 0in /  0.0mm
12:14 54.9 °F /  12.7 °C 48.9 °F /  9.4 °C 30.2in /  1022.9hPa Sur 3.9mph /  6.3km/h 6.2mph /  10km/h 80% 0in /  0.0mm
12:19 55 °F /  12.8 °C 48.7 °F /  9.3 °C 30.2in /  1022.9hPa SO 3.6mph /  5.8km/h 6.9mph /  11.1km/h 79% 0in /  0.0mm
12:24 55.2 °F /  12.9 °C 48.4 °F /  9.1 °C 30.2in /  1022.9hPa OSO 3.8mph /  6.1km/h 9.2mph /  14.8km/h 77.7% 0in /  0.0mm
12:29 55.6 °F /  13.1 °C 48.4 °F /  9.1 °C 30.2in /  1022.8hPa SO 4mph /  6.5km/h 9mph /  14.5km/h 77% 0in /  0.0mm
12:34 55.8 °F /  13.2 °C 48.4 °F /  9.1 °C 30.2in /  1022.8hPa SO 4.2mph /  6.7km/h 7.4mph /  11.9km/h 76.2% 0in /  0.0mm
12:39 55.9 °F /  13.3 °C 48.6 °F /  9.2 °C 30.2in /  1022.8hPa SO 4.3mph /  6.9km/h 7.4mph /  11.9km/h 76% 0in /  0.0mm
12:44 56.1 °F /  13.4 °C 48.6 °F /  9.2 °C 30.2in /  1022.6hPa SO 4.3mph /  6.9km/h 8.1mph /  13km/h 75.5% 0in /  0.0mm
12:49 56.3 °F /  13.5 °C 48.6 °F /  9.2 °C 30.2in /  1022.6hPa SO 4.3mph /  6.9km/h 8.1mph /  13km/h 75% 0in /  0.0mm
12:54 56.3 °F /  13.5 °C 48.2 °F /  9 °C 30.2in /  1022.6hPa SSO 4.5mph /  7.3km/h 8mph /  12.9km/h 74.4% 0in /  0.0mm
12:59 56.5 °F /  13.6 °C 48.6 °F /  9.2 °C 30.2in /  1022.5hPa SO 4.7mph /  7.6km/h 7mph /  11.3km/h 74.7% 0in /  0.0mm
13:04 56.5 °F /  13.6 °C 48.4 °F /  9.1 °C 30.2in /  1022.5hPa Oeste 4.5mph /  7.2km/h 7mph /  11.3km/h 74.1% 0in /  0.0mm
13:09 56.7 °F /  13.7 °C 48.6 °F /  9.2 °C 30.2in /  1022.5hPa Sur 4.3mph /  6.9km/h 6.2mph /  10km/h 74.4% 0in /  0.0mm
13:14 56.8 °F /  13.8 °C 48.6 °F /  9.2 °C 30.2in /  1022.3hPa SSO 3.6mph /  5.8km/h 6.2mph /  10km/h 74% 0in /  0.0mm
13:19 56.8 °F /  13.8 °C 48.6 °F /  9.2 °C 30.2in /  1022.3hPa SO 3.1mph /  5km/h 6mph /  9.7km/h 74% 0in /  0.0mm
13:24 56.8 °F /  13.8 °C 48.6 °F /  9.2 °C 30.2in /  1022.3hPa SSO 3.4mph /  5.4km/h 5.9mph /  9.5km/h 74% 0in /  0.0mm
13:29 57 °F /  13.9 °C 48.7 °F /  9.3 °C 30.2in /  1022.1hPa SO 3.6mph /  5.8km/h 6mph /  9.7km/h 74% 0in /  0.0mm
13:34 57 °F /  13.9 °C 48.7 °F /  9.3 °C 30.2in /  1022.1hPa SO 3.3mph /  5.3km/h 5.9mph /  9.5km/h 73.9% 0in /  0.0mm
13:39 57.2 °F /  14 °C 48.7 °F /  9.3 °C 30.2in /  1022.1hPa SSO 3.1mph /  5km/h 6mph /  9.7km/h 73.5% 0in /  0.0mm
13:44 57.4 °F /  14.1 °C 48.9 °F /  9.4 °C 30.2in /  1021.8hPa SO 3.4mph /  5.4km/h 6.9mph /  11.1km/h 73.2% 0in /  0.0mm
13:49 57.4 °F /  14.1 °C 48.7 °F /  9.3 °C 30.2in /  1021.8hPa SO 3.6mph /  5.8km/h 7mph /  11.3km/h 73% 0in /  0.0mm
13:54 57.6 °F /  14.2 °C 48.9 °F /  9.4 °C 30.2in /  1021.8hPa Sur 3.3mph /  5.3km/h 5.9mph /  9.5km/h 73% 0in /  0.0mm
13:59 57.6 °F /  14.2 °C 49.1 °F /  9.5 °C 30.2in /  1021.5hPa SSE 3.1mph /  5km/h 6.2mph /  10km/h 73% 0in /  0.0mm
14:04 57.7 °F /  14.3 °C 49.1 °F /  9.5 °C 30.2in /  1021.5hPa SO 3.6mph /  5.8km/h 6mph /  9.7km/h 73% 0in /  0.0mm
14:09 57.9 °F /  14.4 °C 49.1 °F /  9.5 °C 30.2in /  1021.5hPa SSO 4mph /  6.5km/h 6mph /  9.7km/h 72.8% 0in /  0.0mm
14:14 57.9 °F /  14.4 °C 49.3 °F /  9.6 °C 30.2in /  1021.4hPa Sur 3.8mph /  6.1km/h 6mph /  9.7km/h 72.8% 0in /  0.0mm
14:19 57.9 °F /  14.4 °C 49.3 °F /  9.6 °C 30.2in /  1021.4hPa SSO 3.6mph /  5.8km/h 6mph /  9.7km/h 73% 0in /  0.0mm
14:24 57.9 °F /  14.4 °C 49.3 °F /  9.6 °C 30.2in /  1021.4hPa SSE 3.3mph /  5.3km/h 6mph /  9.7km/h 72.8% 0in /  0.0mm
14:29 58.1 °F /  14.5 °C 49.5 °F /  9.7 °C 30.2in /  1021.2hPa SE 3.1mph /  5km/h 6.2mph /  10km/h 73% 0in /  0.0mm
14:34 58.5 °F /  14.7 °C 49.6 °F /  9.8 °C 30.2in /  1021.2hPa SSE 3.4mph /  5.4km/h 6mph /  9.7km/h 72.7% 0in /  0.0mm
14:39 58.5 °F /  14.7 °C 49.6 °F /  9.8 °C 30.2in /  1021.2hPa SSE 3.6mph /  5.8km/h 6mph /  9.7km/h 72.4% 0in /  0.0mm
14:44 58.6 °F /  14.8 °C 49.6 °F /  9.8 °C 30.2in /  1021.0hPa SE 3.3mph /  5.3km/h 6mph /  9.7km/h 72% 0in /  0.0mm
14:49 58.8 °F /  14.9 °C 49.5 °F /  9.7 °C 30.2in /  1021.0hPa SE 3.1mph /  5km/h 5.8mph /  9.3km/h 71.3% 0in /  0.0mm
14:54 59 °F /  15 °C 49.6 °F /  9.8 °C 30.2in /  1021.0hPa SE 3.1mph /  5km/h 6.9mph /  11.1km/h 70.9% 0in /  0.0mm
14:59 59.2 °F /  15.1 °C 49.5 °F /  9.7 °C 30.2in /  1021.0hPa SE 3.1mph /  5km/h 7mph /  11.3km/h 70.4% 0in /  0.0mm
15:04 59.4 °F /  15.2 °C 49.6 °F /  9.8 °C 30.2in /  1021.0hPa SE 3.6mph /  5.8km/h 7mph /  11.3km/h 70% 0in /  0.0mm
15:09 59.4 °F /  15.2 °C 49.5 °F /  9.7 °C 30.2in /  1021.0hPa SSE 4mph /  6.5km/h 6.9mph /  11.1km/h 69.7% 0in /  0.0mm
15:14 59.5 °F /  15.3 °C 49.5 °F /  9.7 °C 30.2in /  1020.9hPa SSE 3.8mph /  6.1km/h 7mph /  11.3km/h 69.3% 0in /  0.0mm
15:19 59.5 °F /  15.3 °C 49.5 °F /  9.7 °C 30.2in /  1020.9hPa SE 3.6mph /  5.8km/h 6mph /  9.7km/h 69.1% 0in /  0.0mm
15:24 59.7 °F /  15.4 °C 49.8 °F /  9.9 °C 30.2in /  1020.9hPa SE 3.3mph /  5.3km/h 5.8mph /  9.3km/h 69.6% 0in /  0.0mm
15:29 59.7 °F /  15.4 °C 49.6 °F /  9.8 °C 30.1in /  1020.8hPa SE 3.1mph /  5km/h 6.2mph /  10km/h 69.2% 0in /  0.0mm
15:34 60.1 °F /  15.6 °C 49.8 °F /  9.9 °C 30.1in /  1020.8hPa SE 3.4mph /  5.4km/h 6.2mph /  10km/h 69% 0in /  0.0mm
15:39 60.3 °F /  15.7 °C 49.8 °F /  9.9 °C 30.1in /  1020.8hPa SE 3.6mph /  5.8km/h 6.9mph /  11.1km/h 68.7% 0in /  0.0mm
15:44 60.3 °F /  15.7 °C 49.5 °F /  9.7 °C 30.1in /  1020.8hPa SSE 4mph /  6.4km/h 7mph /  11.3km/h 67.6% 0in /  0.0mm
15:49 60.3 °F /  15.7 °C 49.6 °F /  9.8 °C 30.1in /  1020.8hPa SSE 4.3mph /  6.9km/h 6mph /  9.7km/h 67.9% 0in /  0.0mm
15:54 60.4 °F /  15.8 °C 49.6 °F /  9.8 °C 30.1in /  1020.8hPa SSE 4.2mph /  6.7km/h 6mph /  9.7km/h 67.5% 0in /  0.0mm
15:59 60.4 °F /  15.8 °C 49.6 °F /  9.8 °C 30.1in /  1020.8hPa SSE 4mph /  6.5km/h 6mph /  9.7km/h 67.6% 0in /  0.0mm
16:04 60.4 °F /  15.8 °C 49.3 °F /  9.6 °C 30.1in /  1020.8hPa SSE 3.8mph /  6.1km/h 5.9mph /  9.5km/h 66.5% 0in /  0.0mm
16:09 60.6 °F /  15.9 °C 49.3 °F /  9.6 °C 30.1in /  1020.8hPa SSE 3.6mph /  5.8km/h 6mph /  9.7km/h 66% 0in /  0.0mm
16:14 61 °F /  16.1 °C 49.5 °F /  9.7 °C 30.1in /  1020.8hPa SSE 3.8mph /  6.1km/h 6mph /  9.7km/h 66% 0in /  0.0mm
16:19 61.2 °F /  16.2 °C 49.6 °F /  9.8 °C 30.1in /  1020.8hPa SSE 4mph /  6.5km/h 5.2mph /  8.4km/h 65.7% 0in /  0.0mm
16:24 61.3 °F /  16.3 °C 49.1 °F /  9.5 °C 30.2in /  1021.0hPa SSE 3.5mph /  5.7km/h 5.8mph /  9.3km/h 64.1% 0in /  0.0mm
16:29 61.3 °F /  16.3 °C 48.6 °F /  9.2 °C 30.2in /  1021.0hPa SSE 3.1mph /  5km/h 6mph /  9.7km/h 62.9% 0in /  0.0mm
16:34 61.5 °F /  16.4 °C 48.4 °F /  9.1 °C 30.2in /  1021.0hPa Sur 3.6mph /  5.8km/h 6mph /  9.7km/h 62% 0in /  0.0mm
16:39 61.5 °F /  16.4 °C 48.4 °F /  9.1 °C 30.2in /  1021.1hPa SSE 4mph /  6.5km/h 6mph /  9.7km/h 62% 0in /  0.0mm
16:44 61.7 °F /  16.5 °C 48.6 °F /  9.2 °C 30.2in /  1021.1hPa Sur 3.5mph /  5.6km/h 5.2mph /  8.4km/h 62% 0in /  0.0mm
16:49 61.5 °F /  16.4 °C 48.4 °F /  9.1 °C 30.2in /  1021.1hPa SSE 3.1mph /  5km/h 5.8mph /  9.3km/h 62% 0in /  0.0mm
16:54 61.5 °F /  16.4 °C 48.4 °F /  9.1 °C 30.2in /  1021.1hPa SSE 3.4mph /  5.4km/h 6mph /  9.7km/h 62.2% 0in /  0.0mm
16:59 61.3 °F /  16.3 °C 48.6 °F /  9.2 °C 30.2in /  1021.1hPa SE 3.6mph /  5.8km/h 6mph /  9.7km/h 63% 0in /  0.0mm
17:04 61.3 °F /  16.3 °C 48.9 °F /  9.4 °C 30.2in /  1021.1hPa SSE 3.3mph /  5.3km/h 5mph /  8km/h 63.7% 0in /  0.0mm
17:09 61.2 °F /  16.2 °C 48.9 °F /  9.4 °C 30.2in /  1021.2hPa SE 3.1mph /  5km/h 5mph /  8km/h 64% 0in /  0.0mm
17:14 61 °F /  16.1 °C 48.7 °F /  9.3 °C 30.2in /  1021.2hPa SE 3.1mph /  5km/h 5mph /  8km/h 64% 0in /  0.0mm
17:19 61 °F /  16.1 °C 48.7 °F /  9.3 °C 30.2in /  1021.2hPa SE 3.1mph /  5km/h 5mph /  8km/h 64% 0in /  0.0mm
17:24 60.8 °F /  16 °C 48.6 °F /  9.2 °C 30.2in /  1021.3hPa SE 2.7mph /  4.4km/h 4mph /  6.4km/h 64.2% 0in /  0.0mm
17:29 60.6 °F /  15.9 °C 48.4 °F /  9.1 °C 30.2in /  1021.3hPa SE 2.4mph /  3.9km/h 3.5mph /  5.6km/h 64.1% 0in /  0.0mm
17:34 60.6 °F /  15.9 °C 48.7 °F /  9.3 °C 30.2in /  1021.3hPa SE 2.2mph /  3.5km/h 3mph /  4.8km/h 65% 0in /  0.0mm
17:39 60.4 °F /  15.8 °C 48.6 °F /  9.2 °C 30.2in /  1021.4hPa SE 2mph /  3.2km/h 3.6mph /  5.8km/h 65% 0in /  0.0mm
17:44 60.3 °F /  15.7 °C 48.9 °F /  9.4 °C 30.2in /  1021.4hPa SE 2mph /  3.2km/h 4mph /  6.4km/h 65.8% 0in /  0.0mm
17:49 60.3 °F /  15.7 °C 49.1 °F /  9.5 °C 30.2in /  1021.4hPa SE 2mph /  3.2km/h 4mph /  6.4km/h 66.5% 0in /  0.0mm
17:54 60.1 °F /  15.6 °C 49.1 °F /  9.5 °C 30.2in /  1021.4hPa SE 2mph /  3.2km/h 3.5mph /  5.6km/h 67.1% 0in /  0.0mm
17:59 59.7 °F /  15.4 °C 49.1 °F /  9.5 °C 30.2in /  1021.4hPa SE 2mph /  3.2km/h 5.2mph /  8.4km/h 68% 0in /  0.0mm
18:04 59.4 °F /  15.2 °C 48.9 °F /  9.4 °C 30.2in /  1021.4hPa ESE 2mph /  3.2km/h 5.9mph /  9.5km/h 68.4% 0in /  0.0mm
18:09 58.6 °F /  14.8 °C 48.7 °F /  9.3 °C 30.2in /  1021.4hPa ESE 2mph /  3.2km/h 6mph /  9.7km/h 69.6% 0in /  0.0mm
18:14 58.1 °F /  14.5 °C 48.7 °F /  9.3 °C 30.2in /  1021.4hPa ESE 2.9mph /  4.6km/h 5.2mph /  8.4km/h 70.9% 0in /  0.0mm
18:19 57.7 °F /  14.3 °C 48.7 °F /  9.3 °C 30.2in /  1021.4hPa ESE 3.6mph /  5.8km/h 5mph /  8km/h 72.1% 0in /  0.0mm
18:24 57.6 °F /  14.2 °C 48.9 °F /  9.4 °C 30.2in /  1021.6hPa ESE 2.9mph /  4.7km/h 5mph /  8km/h 73% 0in /  0.0mm
18:29 57.2 °F /  14 °C 48.7 °F /  9.3 °C 30.2in /  1021.6hPa ESE 2.4mph /  3.9km/h 3.5mph /  5.6km/h 73.2% 0in /  0.0mm
18:34 57 °F /  13.9 °C 48.9 °F /  9.4 °C 30.2in /  1021.6hPa ESE 1.1mph /  1.7km/h 3mph /  4.8km/h 74% 0in /  0.0mm
18:39 57 °F /  13.9 °C 48.7 °F /  9.3 °C 30.2in /  1021.7hPa Calm     74% 0in /  0.0mm
18:44 56.8 °F /  13.8 °C 48.6 °F /  9.2 °C 30.2in /  1021.7hPa Calm     74.1% 0in /  0.0mm
18:49 56.5 °F /  13.6 °C 48.6 °F /  9.2 °C 30.2in /  1021.7hPa Calm   4.7mph /  7.6km/h 75% 0in /  0.0mm
18:54 56.1 °F /  13.4 °C 48.7 °F /  9.3 °C 30.2in /  1021.9hPa ENE 1.1mph /  1.8km/h 5.2mph /  8.4km/h 75.9% 0in /  0.0mm
18:59 55.9 °F /  13.3 °C 48.7 °F /  9.3 °C 30.2in /  1021.9hPa ENE 2mph /  3.2km/h 5mph /  8km/h 76.9% 0in /  0.0mm
19:04 55.8 °F /  13.2 °C 48.9 °F /  9.4 °C 30.2in /  1021.9hPa NE 2.5mph /  4.1km/h 5mph /  8km/h 77.7% 0in /  0.0mm
19:09 55.8 °F /  13.2 °C 48.9 °F /  9.4 °C 30.2in /  1022.1hPa NNE 2.9mph /  4.7km/h 4.7mph /  7.6km/h 78.2% 0in /  0.0mm
19:14 55.4 °F /  13 °C 49.1 °F /  9.5 °C 30.2in /  1022.1hPa NNE 2.6mph /  4.2km/h 5mph /  8km/h 79% 0in /  0.0mm
19:19 55.2 °F /  12.9 °C 49.1 °F /  9.5 °C 30.2in /  1022.1hPa NNE 2.4mph /  3.9km/h 5mph /  8km/h 79.9% 0in /  0.0mm
19:24 55 °F /  12.8 °C 49.1 °F /  9.5 °C 30.2in /  1022.2hPa NNE 2.2mph /  3.5km/h 3mph /  4.8km/h 80.4% 0in /  0.0mm
19:29 54.9 °F /  12.7 °C 49.1 °F /  9.5 °C 30.2in /  1022.2hPa NNE 2mph /  3.2km/h 2mph /  3.2km/h 81% 0in /  0.0mm
19:34 54.9 °F /  12.7 °C 49.1 °F /  9.5 °C 30.2in /  1022.2hPa NNE 0.9mph /  1.5km/h 2.9mph /  4.7km/h 81.4% 0in /  0.0mm
19:39 54.5 °F /  12.5 °C 49.1 °F /  9.5 °C 30.2in /  1022.4hPa Calm   3mph /  4.8km/h 82% 0in /  0.0mm
19:44 54.3 °F /  12.4 °C 49.3 °F /  9.6 °C 30.2in /  1022.4hPa NNE 0.8mph /  1.3km/h 3mph /  4.8km/h 82.9% 0in /  0.0mm
19:49 54.1 °F /  12.3 °C 49.1 °F /  9.5 °C 30.2in /  1022.4hPa NNE 1.4mph /  2.2km/h 2.3mph /  3.7km/h 83% 0in /  0.0mm
19:54 54 °F /  12.2 °C 49.3 °F /  9.6 °C 30.2in /  1022.6hPa North 0.6mph /  1km/h 4mph /  6.4km/h 84% 0in /  0.0mm
19:59 54 °F /  12.2 °C 49.5 °F /  9.7 °C 30.2in /  1022.6hPa Calm   5mph /  8km/h 84.7% 0in /  0.0mm
20:04 54 °F /  12.2 °C 49.6 °F /  9.8 °C 30.2in /  1022.6hPa NNO 1.4mph /  2.3km/h 5mph /  8km/h 85% 0in /  0.0mm
20:09 54 °F /  12.2 °C 49.6 °F /  9.8 °C 30.2in /  1022.8hPa NNO 2.4mph /  3.9km/h 5mph /  8km/h 85% 0in /  0.0mm
20:14 53.8 °F /  12.1 °C 49.5 °F /  9.7 °C 30.2in /  1022.8hPa NNO 1.1mph /  1.7km/h   85% 0in /  0.0mm
20:19 53.8 °F /  12.1 °C 49.6 °F /  9.8 °C 30.2in /  1022.8hPa Calm   4mph /  6.4km/h 85.7% 0in /  0.0mm
20:24 53.6 °F /  12 °C 49.5 °F /  9.7 °C 30.2in /  1022.8hPa ESE 0.8mph /  1.3km/h 5mph /  8km/h 86% 0in /  0.0mm
20:29 53.6 °F /  12 °C 49.5 °F /  9.7 °C 30.2in /  1022.8hPa ESE 1.4mph /  2.2km/h 4mph /  6.4km/h 86% 0in /  0.0mm
20:34 53.4 °F /  11.9 °C 49.3 °F /  9.6 °C 30.2in /  1022.8hPa ESE 1.4mph /  2.2km/h 2mph /  3.2km/h 86% 0in /  0.0mm
20:39 53.4 °F /  11.9 °C 49.3 °F /  9.6 °C 30.2in /  1022.9hPa ESE 1.4mph /  2.2km/h   86% 0in /  0.0mm
20:44 53.2 °F /  11.8 °C 49.3 °F /  9.6 °C 30.2in /  1022.9hPa ESE 0.6mph /  1km/h   86% 0in /  0.0mm
20:49 53.2 °F /  11.8 °C 49.1 °F /  9.5 °C 30.2in /  1022.9hPa Calm   4.6mph /  7.4km/h 86% 0in /  0.0mm
20:54 53.1 °F /  11.7 °C 49.1 °F /  9.5 °C 30.2in /  1023.0hPa SSO 1.1mph /  1.8km/h 5mph /  8km/h 86.4% 0in /  0.0mm
20:59 52.9 °F /  11.6 °C 49.1 °F /  9.5 °C 30.2in /  1023.0hPa SSO 2mph /  3.2km/h 4mph /  6.4km/h 87% 0in /  0.0mm
21:04 52.9 °F /  11.6 °C 49.1 °F /  9.5 °C 30.2in /  1023.0hPa SSO 1.6mph /  2.6km/h 3mph /  4.8km/h 87% 0in /  0.0mm
21:09 52.9 °F /  11.6 °C 49.1 °F /  9.5 °C 30.2in /  1023.0hPa SO 1.4mph /  2.2km/h 3.6mph /  5.8km/h 87% 0in /  0.0mm
21:14 52.9 °F /  11.6 °C 49.3 °F /  9.6 °C 30.2in /  1023.0hPa SO 1.6mph /  2.6km/h 4mph /  6.4km/h 87.5% 0in /  0.0mm
21:19 53.1 °F /  11.7 °C 49.6 °F /  9.8 °C 30.2in /  1023.0hPa SO 1.8mph /  2.9km/h 5mph /  8km/h 88% 0in /  0.0mm
21:24 53.1 °F /  11.7 °C 49.6 °F /  9.8 °C 30.2in /  1023.1hPa SO 1.9mph /  3.1km/h 5mph /  8km/h 87.9% 0in /  0.0mm
21:29 53.1 °F /  11.7 °C 49.3 °F /  9.6 °C 30.2in /  1023.1hPa SO 2mph /  3.2km/h 2mph /  3.2km/h 87% 0in /  0.0mm
21:34 53.1 °F /  11.7 °C 49.3 °F /  9.6 °C 30.2in /  1023.1hPa Sur 0.9mph /  1.4km/h 4.6mph /  7.4km/h 87% 0in /  0.0mm
21:39 53.1 °F /  11.7 °C 49.1 °F /  9.5 °C 30.2in /  1023.2hPa Calm   5mph /  8km/h 86.8% 0in /  0.0mm
21:44 52.7 °F /  11.5 °C 48.6 °F /  9.2 °C 30.2in /  1023.2hPa SSE 1.6mph /  2.6km/h 5.2mph /  8.4km/h 86% 0in /  0.0mm
21:49 52.3 °F /  11.3 °C 48.4 °F /  9.1 °C 30.2in /  1023.2hPa SSE 2.9mph /  4.7km/h 5.2mph /  8.4km/h 86.1% 0in /  0.0mm
21:54 52.2 °F /  11.2 °C 48.4 °F /  9.1 °C 30.2in /  1023.4hPa SSE 3.3mph /  5.3km/h 5.2mph /  8.4km/h 87% 0in /  0.0mm
21:59 52 °F /  11.1 °C 48.2 °F /  9 °C 30.2in /  1023.4hPa SSO 3.6mph /  5.8km/h 5mph /  8km/h 87% 0in /  0.0mm
22:04 52 °F /  11.1 °C 48.2 °F /  9 °C 30.2in /  1023.4hPa SO 3.2mph /  5.1km/h 5mph /  8km/h 87% 0in /  0.0mm
22:09 52 °F /  11.1 °C 48.2 °F /  9 °C 30.2in /  1023.4hPa SSO 2.9mph /  4.7km/h 5mph /  8km/h 87% 0in /  0.0mm
22:14 52 °F /  11.1 °C 48.2 °F /  9 °C 30.2in /  1023.4hPa SO 3mph /  4.8km/h 5.8mph /  9.3km/h 87% 0in /  0.0mm
22:19 52 °F /  11.1 °C 48 °F /  8.9 °C 30.2in /  1023.4hPa SO 3.1mph /  5km/h 6mph /  9.7km/h 86.2% 0in /  0.0mm
22:24 52 °F /  11.1 °C 47.8 °F /  8.8 °C 30.2in /  1023.4hPa SSO 3.1mph /  5km/h 5.2mph /  8.4km/h 86% 0in /  0.0mm
22:29 52 °F /  11.1 °C 47.8 °F /  8.8 °C 30.2in /  1023.4hPa Sur 3.1mph /  5km/h 6.2mph /  10km/h 85.6% 0in /  0.0mm
22:34 52 °F /  11.1 °C 47.7 °F /  8.7 °C 30.2in /  1023.4hPa Sur 3.6mph /  5.8km/h 6.4mph /  10.3km/h 85% 0in /  0.0mm
22:39 51.6 °F /  10.9 °C 47.3 °F /  8.5 °C 30.2in /  1023.5hPa Sur 4mph /  6.5km/h 7mph /  11.3km/h 85% 0in /  0.0mm
22:44 51.6 °F /  10.9 °C 47.3 °F /  8.5 °C 30.2in /  1023.5hPa Sur 4.2mph /  6.7km/h 6.2mph /  10km/h 85% 0in /  0.0mm
22:49 51.6 °F /  10.9 °C 47.3 °F /  8.5 °C 30.2in /  1023.5hPa SO 4.3mph /  6.9km/h 6mph /  9.7km/h 85% 0in /  0.0mm
22:54 51.6 °F /  10.9 °C 47.5 °F /  8.6 °C 30.2in /  1023.6hPa SSO 3.9mph /  6.3km/h 6.9mph /  11.1km/h 85.4% 0in /  0.0mm
22:59 51.6 °F /  10.9 °C 47.7 °F /  8.7 °C 30.2in /  1023.6hPa SSO 3.6mph /  5.8km/h 7mph /  11.3km/h 86% 0in /  0.0mm
23:04 51.6 °F /  10.9 °C 47.7 °F /  8.7 °C 30.2in /  1023.6hPa SO 3.3mph /  5.3km/h 6mph /  9.7km/h 86% 0in /  0.0mm
23:09 51.6 °F /  10.9 °C 47.7 °F /  8.7 °C 30.2in /  1023.6hPa SO 3.1mph /  5km/h 5mph /  8km/h 86% 0in /  0.0mm
23:14 51.6 °F /  10.9 °C 47.7 °F /  8.7 °C 30.2in /  1023.6hPa SO 3mph /  4.8km/h 5mph /  8km/h 86% 0in /  0.0mm
23:19 51.4 °F /  10.8 °C 47.5 °F /  8.6 °C 30.2in /  1023.6hPa SO 2.9mph /  4.7km/h 5mph /  8km/h 86% 0in /  0.0mm
23:24 51.3 °F /  10.7 °C 47.5 °F /  8.6 °C 30.2in /  1023.7hPa SO 2.9mph /  4.7km/h 5.9mph /  9.5km/h 86.5% 0in /  0.0mm
23:29 51.3 °F /  10.7 °C 47.7 °F /  8.7 °C 30.2in /  1023.7hPa SO 2.9mph /  4.7km/h 6mph /  9.7km/h 87% 0in /  0.0mm
23:34 51.4 °F /  10.8 °C 47.7 °F /  8.7 °C 30.2in /  1023.7hPa SO 3.3mph /  5.3km/h 6mph /  9.7km/h 87% 0in /  0.0mm
23:39 51.4 °F /  10.8 °C 47.7 °F /  8.7 °C 30.2in /  1023.8hPa SSO 3.6mph /  5.8km/h 5mph /  8km/h 87% 0in /  0.0mm
23:44 51.4 °F /  10.8 °C 47.8 °F /  8.8 °C 30.2in /  1023.8hPa Sur 3.6mph /  5.8km/h 5.4mph /  8.7km/h 87% 0in /  0.0mm
23:49 51.4 °F /  10.8 °C 47.7 °F /  8.7 °C 30.2in /  1023.8hPa SSE 3.6mph /  5.8km/h 6.2mph /  10km/h 87% 0in /  0.0mm
23:54 51.4 °F /  10.8 °C 47.7 °F /  8.7 °C 30.2in /  1023.8hPa SSE 4mph /  6.4km/h 6.9mph /  11.1km/h 87% 0in /  0.0mm
23:59 51.3 °F /  10.7 °C 47.5 °F /  8.6 °C 30.2in /  1023.7hPa SSE 4.3mph /  6.9km/h 7mph /  11.3km/h 86.8% 0in /  0.0mm
Murcia-Puente Tocinos, España
Compliments of Weather Underground - 3 mb

La estación de MeteoMurcia.com, publica sus datos en los siguientes proyectos:

Weather Underground PWS IMURCIAP2 Meteoclimatic www.awekas.at

W3Counter
Web Analytics